Time;durP1;ratioP1;P1;durP2;ratioP2;P2;SDS_P1;SDS_P2;PMS_P1;PMS_P2;Temp;Humidity;BMP_temperature;BMP_pressure;BME280_temperature;BME280_humidity;BME280_pressure;Samples;Min_cycle;Max_cycle;Signal;HPM_P1;HPM_P2
2021/07/21 00:02:02;;;;;;;60.43;3.27;;;15.40;1.00;;;;;;5072875;28;20449;-72
2021/07/21 00:04:29;;;;;;;58.57;3.00;;;15.40;1.00;;;;;;5073612;28;20572;-72
2021/07/21 00:06:56;;;;;;;58.50;3.00;;;15.30;1.00;;;;;;5073911;28;20467;-72
2021/07/21 00:09:24;;;;;;;58.90;3.03;;;15.30;1.00;;;;;;5073892;28;20524;-72
2021/07/21 00:14:36;;;;;;;58.80;2.93;;;15.30;1.00;;;;;;5073694;28;20502;-72
2021/07/21 00:17:06;;;;;;;58.60;3.10;;;15.20;1.00;;;;;;5073628;28;20459;-72
2021/07/21 00:22:17;;;;;;;58.33;2.70;;;15.20;1.00;;;;;;5073621;28;20427;-72
2021/07/21 00:24:45;;;;;;;59.00;3.37;;;15.20;1.00;;;;;;5073207;28;20478;-72
2021/07/21 00:27:13;;;;;;;59.50;3.30;;;15.20;1.00;;;;;;5073397;28;20952;-72
2021/07/21 00:29:39;;;;;;;58.90;3.00;;;15.10;1.00;;;;;;5073463;28;20445;-72
2021/07/21 00:32:07;;;;;;;59.20;2.90;;;15.10;1.00;;;;;;5072898;28;20489;-72
2021/07/21 00:34:34;;;;;;;58.77;3.07;;;15.00;1.00;;;;;;5072125;28;20551;-72
2021/07/21 00:37:00;;;;;;;58.67;3.07;;;15.00;1.00;;;;;;5073228;28;20443;-72
2021/07/21 00:39:27;;;;;;;58.77;2.90;;;15.00;1.00;;;;;;5073605;28;20933;-72
2021/07/21 00:41:55;;;;;;;58.47;2.63;;;15.00;1.00;;;;;;5072745;28;20546;-72
2021/07/21 00:44:22;;;;;;;59.20;3.07;;;15.00;1.00;;;;;;5073048;28;20469;-72
2021/07/21 00:46:49;;;;;;;58.60;3.30;;;14.90;1.00;;;;;;5073162;28;20999;-72
2021/07/21 00:49:16;;;;;;;58.47;3.23;;;14.90;1.00;;;;;;5072970;28;20530;-72
2021/07/21 00:51:43;;;;;;;59.57;4.20;;;14.90;1.00;;;;;;5072448;28;20480;-72
2021/07/21 00:54:10;;;;;;;58.27;2.70;;;14.80;1.00;;;;;;5072767;28;20469;-72
2021/07/21 00:56:37;;;;;;;58.50;2.80;;;14.80;1.00;;;;;;5072750;28;20520;-72
2021/07/21 00:59:05;;;;;;;58.57;3.00;;;14.70;1.00;;;;;;5072725;28;20566;-72
2021/07/21 01:01:32;;;;;;;59.57;4.30;;;14.80;1.00;;;;;;5072606;28;20447;-72
2021/07/21 01:03:59;;;;;;;60.60;3.50;;;14.80;1.00;;;;;;5070866;28;20592;-72
2021/07/21 01:06:26;;;;;;;58.57;3.23;;;14.70;1.00;;;;;;5072383;28;20539;-72
2021/07/21 01:08:53;;;;;;;59.17;3.87;;;14.70;1.00;;;;;;5072919;28;20901;-72
2021/07/21 01:11:28;;;;;;;59.27;3.73;;;14.70;1.00;;;;;;5072452;28;20483;-72
2021/07/21 01:14:00;;;;;;;60.07;3.73;;;14.70;1.00;;;;;;5072615;28;20541;-72
2021/07/21 01:16:33;;;;;;;58.90;3.27;;;14.60;1.00;;;;;;5072844;28;20463;-72
2021/07/21 01:19:06;;;;;;;58.17;2.60;;;14.60;1.00;;;;;;5072325;28;20481;-72
2021/07/21 01:22:11;;;;;;;58.77;2.90;;;14.60;1.00;;;;;;5072346;28;20448;-72
2021/07/21 01:24:52;;;;;;;59.00;3.77;;;14.60;1.00;;;;;;5072338;28;20549;-72
2021/07/21 01:27:28;;;;;;;58.40;3.33;;;14.60;1.00;;;;;;5072411;28;20981;-72
2021/07/21 01:29:58;;;;;;;58.47;2.60;;;14.60;1.00;;;;;;5072218;28;20949;-72
2021/07/21 01:32:29;;;;;;;58.57;2.60;;;14.60;1.00;;;;;;5072330;28;20447;-72
2021/07/21 01:35:03;;;;;;;58.37;3.00;;;14.60;1.00;;;;;;5070726;28;20490;-72
2021/07/21 01:37:31;;;;;;;58.90;3.10;;;14.50;1.00;;;;;;5071847;28;20819;-72
2021/07/21 01:40:04;;;;;;;58.37;2.90;;;14.50;1.00;;;;;;5072291;28;20483;-72
2021/07/21 01:42:34;;;;;;;58.43;2.70;;;14.50;1.00;;;;;;5072054;28;20446;-72
2021/07/21 01:45:02;;;;;;;59.50;3.37;;;14.50;1.00;;;;;;5072068;28;20601;-72
2021/07/21 01:47:33;;;;;;;58.70;3.10;;;14.40;1.00;;;;;;5071904;28;20614;-72
2021/07/21 01:50:02;;;;;;;58.90;3.30;;;14.40;1.00;;;;;;5072026;28;20448;-72
2021/07/21 01:52:31;;;;;;;58.47;3.10;;;14.40;1.00;;;;;;5071800;28;20453;-72
2021/07/21 01:55:01;;;;;;;59.57;4.00;;;14.40;1.00;;;;;;5071526;28;20472;-72
2021/07/21 01:57:32;;;;;;;58.80;3.20;;;14.40;1.00;;;;;;5072101;28;20534;-72
2021/07/21 02:00:01;;;;;;;60.37;3.70;;;14.30;1.00;;;;;;5072081;28;20475;-72
2021/07/21 02:02:29;;;;;;;58.43;3.00;;;14.30;1.00;;;;;;5071139;28;20538;-72
2021/07/21 02:04:58;;;;;;;58.37;3.20;;;14.30;1.00;;;;;;5071705;28;20481;-72
2021/07/21 02:07:26;;;;;;;58.37;3.17;;;14.20;1.00;;;;;;5070559;28;20486;-72
2021/07/21 02:09:53;;;;;;;58.50;2.87;;;14.20;1.00;;;;;;5071689;28;20449;-72
2021/07/21 02:12:21;;;;;;;58.87;3.13;;;14.20;1.00;;;;;;5071733;28;20454;-72
2021/07/21 02:14:49;;;;;;;58.63;3.10;;;14.10;1.00;;;;;;5071597;28;20497;-72
2021/07/21 02:17:18;;;;;;;58.90;3.20;;;14.20;1.00;;;;;;5071329;28;20450;-72
2021/07/21 02:19:46;;;;;;;58.33;2.80;;;14.10;1.00;;;;;;5071632;28;20579;-72
2021/07/21 02:22:16;;;;;;;58.90;3.20;;;14.10;1.00;;;;;;5071276;28;20451;-72
2021/07/21 02:24:44;;;;;;;59.00;3.30;;;14.10;1.00;;;;;;5071881;28;20486;-73
2021/07/21 02:27:12;;;;;;;58.47;2.80;;;14.10;1.00;;;;;;5071606;28;20451;-72
2021/07/21 02:29:39;;;;;;;58.57;2.73;;;14.10;1.00;;;;;;5071386;28;20443;-72
2021/07/21 02:32:12;;;;;;;58.67;3.40;;;14.10;1.00;;;;;;5071496;28;20885;-72
2021/07/21 02:34:40;;;;;;;58.60;2.90;;;14.00;1.00;;;;;;5071669;28;20563;-72
2021/07/21 02:37:07;;;;;;;60.20;3.87;;;14.00;1.00;;;;;;5070715;28;20451;-72
2021/07/21 02:39:34;;;;;;;58.67;3.50;;;14.00;1.00;;;;;;5053769;28;20566;-72
2021/07/21 02:42:01;;;;;;;58.40;2.63;;;14.00;1.00;;;;;;5070911;28;20446;-72
2021/07/21 02:44:27;;;;;;;59.13;3.60;;;13.90;1.00;;;;;;5071591;28;20467;-72
2021/07/21 02:46:54;;;;;;;58.80;3.20;;;13.90;1.00;;;;;;5071728;28;20470;-72
2021/07/21 02:49:23;;;;;;;58.90;3.70;;;13.90;1.00;;;;;;5071766;28;20524;-72
2021/07/21 02:51:53;;;;;;;59.77;3.00;;;13.80;1.00;;;;;;5071056;28;21027;-72
2021/07/21 02:54:32;;;;;;;58.97;3.17;;;13.90;1.00;;;;;;5071257;28;20474;-72
2021/07/21 02:57:07;;;;;;;58.97;3.23;;;13.80;1.00;;;;;;5071669;28;20452;-72
2021/07/21 02:59:39;;;;;;;59.83;3.30;;;13.80;1.00;;;;;;5071366;28;20485;-72
2021/07/21 03:02:08;;;;;;;58.57;2.90;;;13.80;1.00;;;;;;5071526;28;20443;-72
2021/07/21 03:04:38;;;;;;;58.57;3.33;;;13.80;1.00;;;;;;5071200;28;20511;-72
2021/07/21 03:07:07;;;;;;;58.43;2.60;;;13.70;1.00;;;;;;5074187;28;20538;-72
2021/07/21 03:09:35;;;;;;;58.60;2.70;;;13.60;1.00;;;;;;5073403;28;20550;-72
2021/07/21 03:12:08;;;;;;;59.07;3.13;;;13.60;1.00;;;;;;5062912;28;20463;-72
2021/07/21 03:14:38;;;;;;;58.60;2.60;;;13.60;1.00;;;;;;5054780;28;20473;-72
2021/07/21 03:17:07;;;;;;;58.80;3.10;;;13.60;1.00;;;;;;5055230;28;20444;-72
2021/07/21 03:19:34;;;;;;;59.43;3.17;;;13.60;1.00;;;;;;5054520;28;20930;-72
2021/07/21 03:22:05;;;;;;;58.73;3.03;;;13.60;1.00;;;;;;5054435;28;20940;-72
2021/07/21 03:24:32;;;;;;;58.67;2.80;;;13.60;1.00;;;;;;5054778;28;20499;-72
2021/07/21 03:27:01;;;;;;;58.57;2.80;;;13.60;1.00;;;;;;5054494;28;20936;-72
2021/07/21 03:29:31;;;;;;;58.67;3.30;;;13.50;1.00;;;;;;5054612;28;20448;-72
2021/07/21 03:31:59;;;;;;;59.97;3.37;;;13.50;1.00;;;;;;5054254;28;20455;-72
2021/07/21 03:34:26;;;;;;;60.70;3.27;;;13.50;1.00;;;;;;5054291;28;20559;-72
2021/07/21 03:36:55;;;;;;;58.60;3.20;;;13.50;1.00;;;;;;5054615;28;20456;-72
2021/07/21 03:39:24;;;;;;;58.37;2.77;;;13.50;1.00;;;;;;5054356;28;20480;-72
2021/07/21 03:41:53;;;;;;;58.57;3.00;;;13.40;1.00;;;;;;5053189;28;20448;-72
2021/07/21 03:44:25;;;;;;;59.10;3.03;;;13.40;1.00;;;;;;5073711;28;20489;-72
2021/07/21 03:46:53;;;;;;;58.80;3.10;;;13.50;1.00;;;;;;5074644;28;20539;-72
2021/07/21 03:49:20;;;;;;;58.40;2.83;;;13.40;1.00;;;;;;5074539;28;20482;-72
2021/07/21 03:51:48;;;;;;;61.77;3.13;;;13.40;1.00;;;;;;5074000;28;20547;-72
2021/07/21 03:54:17;;;;;;;58.87;3.00;;;13.40;1.00;;;;;;5074113;28;20909;-72
2021/07/21 03:56:46;;;;;;;58.80;3.10;;;13.40;1.00;;;;;;5074104;28;20446;-72
2021/07/21 03:59:16;;;;;;;58.87;2.80;;;13.40;1.00;;;;;;5073846;28;20462;-72
2021/07/21 04:01:44;;;;;;;60.07;4.10;;;13.40;1.00;;;;;;5073738;28;20462;-72
2021/07/21 04:04:14;;;;;;;58.37;2.93;;;13.40;1.00;;;;;;5073713;28;20479;-72
2021/07/21 04:06:43;;;;;;;58.80;2.90;;;13.40;1.00;;;;;;5074098;28;20509;-72
2021/07/21 04:09:14;;;;;;;59.07;3.00;;;13.40;1.00;;;;;;5074006;28;20546;-72
2021/07/21 04:11:41;;;;;;;58.37;2.70;;;13.40;1.00;;;;;;5073502;28;20443;-72
2021/07/21 04:14:13;;;;;;;58.57;2.90;;;13.40;1.00;;;;;;5073881;28;20449;-72
2021/07/21 04:16:41;;;;;;;58.47;2.63;;;13.30;1.00;;;;;;5067917;28;20490;-72
2021/07/21 04:19:10;;;;;;;58.43;2.90;;;13.30;1.00;;;;;;5060631;28;20451;-72
2021/07/21 04:21:40;;;;;;;58.97;3.27;;;13.30;1.00;;;;;;5073248;28;20530;-72
2021/07/21 04:24:10;;;;;;;58.63;2.70;;;13.30;1.00;;;;;;5073376;28;20454;-72
2021/07/21 04:26:38;;;;;;;58.70;2.87;;;13.40;1.00;;;;;;5073647;28;20535;-72
2021/07/21 04:29:06;;;;;;;58.87;3.27;;;13.40;1.00;;;;;;5073580;28;20977;-72
2021/07/21 04:31:36;;;;;;;59.10;3.10;;;13.40;1.00;;;;;;5073126;28;21022;-72
2021/07/21 04:34:05;;;;;;;60.37;3.93;;;13.40;1.00;;;;;;5073541;28;20478;-72
2021/07/21 04:36:34;;;;;;;61.73;3.93;;;13.40;1.00;;;;;;5073247;28;20438;-72
2021/07/21 04:39:01;;;;;;;58.90;3.27;;;13.40;1.00;;;;;;5073103;28;20453;-72
2021/07/21 04:41:28;;;;;;;58.40;2.77;;;13.40;1.00;;;;;;5073064;28;20479;-72
2021/07/21 04:43:56;;;;;;;58.67;3.33;;;13.40;1.00;;;;;;5073595;28;20445;-72
2021/07/21 04:46:23;;;;;;;59.97;3.43;;;13.40;1.00;;;;;;5073037;28;20451;-72
2021/07/21 04:48:52;;;;;;;58.40;2.70;;;13.40;1.00;;;;;;5057604;28;20454;-72
2021/07/21 04:51:22;;;;;;;58.70;3.23;;;13.50;1.00;;;;;;5052819;28;20551;-72
2021/07/21 04:53:53;;;;;;;58.97;3.10;;;13.50;1.00;;;;;;5052969;28;20455;-72
2021/07/21 04:56:20;;;;;;;58.50;2.70;;;13.50;1.00;;;;;;5053142;28;20873;-72
2021/07/21 04:58:47;;;;;;;59.30;2.80;;;13.50;1.00;;;;;;5052939;28;20865;-72
2021/07/21 05:01:14;;;;;;;60.37;3.83;;;13.60;1.00;;;;;;5052872;28;20582;-72
2021/07/21 05:03:41;;;;;;;58.90;2.80;;;13.60;1.00;;;;;;5052702;28;20459;-72
2021/07/21 05:06:10;;;;;;;58.70;3.00;;;13.60;1.00;;;;;;5052575;28;21115;-72
2021/07/21 05:08:37;;;;;;;58.70;3.00;;;13.70;1.00;;;;;;5052724;28;20534;-72
2021/07/21 05:11:03;;;;;;;58.77;3.33;;;13.70;1.00;;;;;;5052467;28;20483;-73
2021/07/21 05:13:32;;;;;;;58.67;2.80;;;13.70;1.00;;;;;;5052492;28;20451;-73
2021/07/21 05:15:59;;;;;;;59.33;3.53;;;13.70;1.00;;;;;;5052501;28;20526;-73
2021/07/21 05:18:26;;;;;;;58.83;2.97;;;13.80;1.00;;;;;;5054286;28;20465;-73
2021/07/21 05:20:53;;;;;;;58.37;2.90;;;13.80;1.00;;;;;;5072411;28;20581;-73
2021/07/21 05:23:21;;;;;;;58.47;2.90;;;13.80;1.00;;;;;;5072421;28;20447;-73
2021/07/21 05:25:48;;;;;;;58.60;2.97;;;13.90;1.00;;;;;;5072357;28;20494;-73
2021/07/21 05:28:15;;;;;;;58.90;3.27;;;13.90;1.00;;;;;;5071792;28;20455;-72
2021/07/21 05:30:41;;;;;;;59.37;3.67;;;13.90;1.00;;;;;;5072333;28;20535;-72
2021/07/21 05:33:08;;;;;;;58.90;3.57;;;14.00;1.00;;;;;;5072090;28;20538;-72
2021/07/21 05:35:35;;;;;;;59.00;3.27;;;14.10;1.00;;;;;;5072273;28;20473;-72
2021/07/21 05:38:02;;;;;;;58.27;2.70;;;14.10;1.00;;;;;;5072378;28;20534;-72
2021/07/21 05:40:31;;;;;;;58.90;3.90;;;14.20;1.00;;;;;;5072222;28;20486;-72
2021/07/21 05:42:58;;;;;;;58.40;2.90;;;14.20;1.00;;;;;;5071793;28;20538;-72
2021/07/21 05:45:24;;;;;;;58.67;3.00;;;14.30;1.00;;;;;;5071661;28;20546;-72
2021/07/21 05:47:51;;;;;;;58.63;2.90;;;14.30;1.00;;;;;;5072247;28;20447;-72
2021/07/21 05:50:18;;;;;;;61.63;3.83;;;14.30;1.00;;;;;;5061357;28;20539;-72
2021/07/21 05:52:45;;;;;;;59.00;3.70;;;14.40;1.00;;;;;;5063556;28;20537;-72
2021/07/21 05:55:13;;;;;;;59.57;3.87;;;14.40;1.00;;;;;;5071879;28;20843;-72
2021/07/21 05:57:44;;;;;;;61.47;3.57;;;14.50;1.00;;;;;;5072069;28;20980;-73
2021/07/21 06:00:13;;;;;;;58.90;3.73;;;14.50;1.00;;;;;;5071604;28;20483;-73
2021/07/21 06:02:40;;;;;;;58.60;3.10;;;14.60;1.00;;;;;;5071727;28;20550;-73
2021/07/21 06:05:08;;;;;;;58.47;3.20;;;14.60;1.00;;;;;;5071720;28;20476;-73
2021/07/21 06:07:35;;;;;;;58.53;2.97;;;14.70;1.00;;;;;;5072033;28;20443;-73
2021/07/21 06:10:02;;;;;;;59.20;3.73;;;14.70;1.00;;;;;;5071999;28;20897;-73
2021/07/21 06:12:28;;;;;;;58.17;3.33;;;14.80;1.00;;;;;;5071369;28;20483;-72
2021/07/21 06:14:57;;;;;;;59.97;4.40;;;14.90;1.00;;;;;;5071581;28;20503;-72
2021/07/21 06:17:24;;;;;;;58.80;3.10;;;14.90;1.00;;;;;;5071922;28;20452;-72
2021/07/21 06:19:51;;;;;;;59.87;3.37;;;15.00;1.00;;;;;;5071692;28;20443;-73
2021/07/21 06:22:18;;;;;;;58.60;3.30;;;15.00;1.00;;;;;;5069964;28;20956;-73
2021/07/21 06:24:45;;;;;;;58.33;3.30;;;15.10;1.00;;;;;;5071268;28;20467;-73
2021/07/21 06:27:12;;;;;;;59.67;4.17;;;15.20;1.00;;;;;;5071608;28;20448;-73
2021/07/21 06:29:39;;;;;;;59.30;3.60;;;15.30;1.00;;;;;;5071833;28;20453;-73
2021/07/21 06:32:08;;;;;;;58.80;3.30;;;15.40;1.00;;;;;;5071276;28;20439;-73
2021/07/21 06:34:35;;;;;;;59.27;3.60;;;15.50;1.00;;;;;;5071434;28;20500;-73
2021/07/21 06:37:02;;;;;;;60.30;3.93;;;15.50;1.00;;;;;;5071516;28;20490;-73
2021/07/21 06:39:29;;;;;;;59.50;3.83;;;15.60;1.00;;;;;;5072067;28;20446;-73
2021/07/21 06:41:56;;;;;;;59.20;3.80;;;15.70;1.00;;;;;;5075001;28;20570;-72
2021/07/21 06:44:23;;;;;;;58.37;3.03;;;15.70;1.00;;;;;;5075554;28;21048;-73
2021/07/21 06:46:49;;;;;;;58.80;3.47;;;15.80;1.00;;;;;;5075291;28;20456;-73
2021/07/21 06:49:18;;;;;;;58.70;3.60;;;15.90;1.00;;;;;;5075348;28;20525;-73
2021/07/21 06:51:45;;;;;;;58.67;3.00;;;16.00;1.00;;;;;;5073638;28;20968;-73
2021/07/21 06:54:11;;;;;;;58.17;2.50;;;16.10;1.00;;;;;;5071144;28;20476;-73
2021/07/21 06:56:38;;;;;;;58.27;3.23;;;16.10;1.00;;;;;;5055267;28;20548;-73
2021/07/21 06:59:05;;;;;;;59.37;3.03;;;16.20;1.00;;;;;;5055110;28;20452;-73
2021/07/21 07:01:32;;;;;;;58.40;2.90;;;16.30;1.00;;;;;;5054968;28;20578;-73
2021/07/21 07:03:59;;;;;;;58.33;2.70;;;16.40;1.00;;;;;;5054987;28;20555;-73
2021/07/21 07:06:27;;;;;;;58.60;3.10;;;16.50;1.00;;;;;;5055104;28;20448;-73
2021/07/21 07:08:54;;;;;;;58.50;3.53;;;16.50;1.00;;;;;;5054868;28;20486;-73
2021/07/21 07:11:21;;;;;;;59.10;3.53;;;16.60;1.00;;;;;;5055164;28;20445;-73
2021/07/21 07:13:47;;;;;;;58.63;3.03;;;16.70;1.00;;;;;;5055116;28;20457;-73
2021/07/21 07:16:14;;;;;;;58.47;3.17;;;16.80;1.00;;;;;;5054757;28;20555;-73
2021/07/21 07:18:41;;;;;;;58.50;3.00;;;16.90;1.00;;;;;;5054750;28;20927;-73
2021/07/21 07:21:08;;;;;;;58.17;2.83;;;17.00;1.00;;;;;;5054744;28;20510;-73
2021/07/21 07:23:37;;;;;;;58.57;2.97;;;17.10;1.00;;;;;;5057448;28;20576;-73
2021/07/21 07:26:04;;;;;;;58.70;3.07;;;17.20;1.00;;;;;;5067913;28;20471;-73
2021/07/21 07:28:30;;;;;;;58.17;3.80;;;17.30;1.00;;;;;;5054576;28;20496;-73
2021/07/21 07:30:57;;;;;;;58.47;3.10;;;17.40;1.00;;;;;;5054462;28;20490;-73
2021/07/21 07:33:24;;;;;;;58.93;3.03;;;17.50;1.00;;;;;;5054407;28;20496;-73
2021/07/21 07:35:51;;;;;;;59.10;3.57;;;17.60;1.00;;;;;;5054230;28;20466;-73
2021/07/21 07:38:18;;;;;;;60.07;3.27;;;17.70;1.00;;;;;;5054527;28;20457;-73
2021/07/21 07:40:46;;;;;;;58.67;3.00;;;17.70;1.00;;;;;;5054343;28;20482;-73
2021/07/21 07:43:13;;;;;;;58.30;2.70;;;17.80;1.00;;;;;;5054069;28;20448;-73
2021/07/21 07:45:40;;;;;;;57.63;2.67;;;18.00;1.00;;;;;;5054336;28;20549;-73
2021/07/21 07:48:07;;;;;;;58.30;2.50;;;18.10;1.00;;;;;;5054202;28;20478;-72
2021/07/21 07:50:34;;;;;;;58.63;2.67;;;18.20;1.00;;;;;;5053824;28;20485;-72
2021/07/21 07:53:01;;;;;;;59.43;3.23;;;18.30;1.00;;;;;;5058831;28;20531;-72
2021/07/21 07:55:29;;;;;;;58.80;3.40;;;18.40;1.00;;;;;;5074203;28;20471;-72
2021/07/21 07:57:57;;;;;;;58.13;2.80;;;18.50;1.00;;;;;;5074222;28;20453;-72
2021/07/21 08:00:24;;;;;;;60.60;5.30;;;18.60;1.00;;;;;;5074148;28;20541;-71
2021/07/21 08:02:51;;;;;;;61.27;4.30;;;18.70;1.00;;;;;;5073631;28;20553;-71
2021/07/21 08:05:18;;;;;;;59.03;2.97;;;18.90;1.00;;;;;;5074017;28;21026;-72
2021/07/21 08:07:45;;;;;;;58.90;3.33;;;19.00;1.00;;;;;;5074125;28;20545;-71
2021/07/21 08:10:14;;;;;;;58.07;2.80;;;19.10;1.00;;;;;;5073951;28;20482;-72
2021/07/21 08:12:43;;;;;;;59.47;3.30;;;19.20;1.00;;;;;;5073894;28;20442;-72
2021/07/21 08:15:13;;;;;;;58.27;3.00;;;19.30;1.00;;;;;;5073801;28;20847;-72
2021/07/21 08:17:42;;;;;;;58.50;3.00;;;19.50;1.00;;;;;;5073222;28;20451;-72
2021/07/21 08:20:10;;;;;;;58.00;2.60;;;19.60;1.00;;;;;;5073751;28;20955;-71
2021/07/21 08:22:40;;;;;;;60.00;3.80;;;19.70;1.00;;;;;;5073303;28;21037;-71
2021/07/21 08:25:09;;;;;;;58.70;2.50;;;19.90;1.00;;;;;;5073735;28;20489;-73
2021/07/21 08:27:36;;;;;;;57.70;2.40;;;20.00;1.00;;;;;;5073901;28;20534;-72
2021/07/21 08:30:05;;;;;;;59.43;3.20;;;20.20;1.00;;;;;;5073649;28;20447;-72
2021/07/21 08:32:34;;;;;;;58.60;2.73;;;20.30;1.00;;;;;;5073376;28;20444;-73
2021/07/21 08:35:00;;;;;;;58.37;2.57;;;20.50;1.00;;;;;;5073619;28;20500;-71
2021/07/21 08:37:27;;;;;;;58.03;2.70;;;20.70;1.00;;;;;;5073580;28;20448;-71
2021/07/21 08:39:54;;;;;;;58.07;2.67;;;20.80;1.00;;;;;;5073516;28;20448;-73
2021/07/21 08:42:22;;;;;;;57.77;2.77;;;21.00;1.00;;;;;;5072954;28;20499;-69
2021/07/21 08:44:48;;;;;;;58.50;2.60;;;21.20;1.00;;;;;;5073523;28;20465;-70
2021/07/21 08:47:15;;;;;;;58.67;2.67;;;21.30;1.00;;;;;;5073507;28;20445;-70
2021/07/21 08:49:44;;;;;;;58.57;2.83;;;21.40;1.00;;;;;;5073118;28;20456;-70
2021/07/21 08:52:14;;;;;;;60.80;4.17;;;21.50;1.00;;;;;;5072973;28;20845;-69
2021/07/21 08:54:44;;;;;;;58.70;3.00;;;21.70;1.00;;;;;;5073113;28;20470;-71
2021/07/21 08:57:12;;;;;;;58.70;3.33;;;21.90;1.00;;;;;;5073231;28;20461;-69
2021/07/21 08:59:39;;;;;;;58.93;2.97;;;22.00;1.00;;;;;;5073237;28;20458;-70
2021/07/21 09:02:10;;;;;;;58.67;2.90;;;22.20;1.00;;;;;;5072618;28;20576;-70
2021/07/21 09:04:37;;;;;;;58.47;3.20;;;22.30;1.00;;;;;;5072823;28;20482;-71
2021/07/21 09:07:06;;;;;;;58.27;2.60;;;22.40;1.00;;;;;;5072892;28;20481;-71
2021/07/21 09:09:33;;;;;;;58.30;2.70;;;22.50;1.00;;;;;;5072729;28;20968;-71
2021/07/21 09:12:01;;;;;;;58.77;3.10;;;22.60;1.00;;;;;;5072658;28;20450;-71
2021/07/21 09:14:28;;;;;;;58.60;2.87;;;22.80;1.00;;;;;;5072820;28;20471;-70
2021/07/21 09:17:09;;;;;;;58.30;2.47;;;22.80;1.00;;;;;;5072765;28;20538;-70
2021/07/21 09:19:38;;;;;;;59.50;4.07;;;23.00;1.00;;;;;;5072573;28;21010;-70
2021/07/21 09:22:18;;;;;;;58.60;3.20;;;23.20;1.00;;;;;;5072077;28;20485;-70
2021/07/21 09:24:45;;;;;;;60.50;3.83;;;23.30;1.00;;;;;;5072656;28;20490;-70
2021/07/21 09:27:12;;;;;;;58.13;2.40;;;23.40;1.00;;;;;;5072440;28;20537;-69
2021/07/21 09:29:41;;;;;;;58.30;2.83;;;23.50;1.00;;;;;;5072721;28;20449;-69
2021/07/21 09:32:09;;;;;;;58.43;2.73;;;23.50;1.00;;;;;;5072079;28;20444;-71
2021/07/21 09:34:36;;;;;;;58.80;3.67;;;23.60;1.00;;;;;;5072241;28;20481;-71
2021/07/21 09:37:06;;;;;;;59.37;2.90;;;23.80;1.00;;;;;;5072181;28;20479;-71
2021/07/21 09:39:37;;;;;;;58.97;3.23;;;24.00;1.00;;;;;;5072176;28;20950;-70
2021/07/21 09:42:04;;;;;;;58.80;2.57;;;24.10;1.00;;;;;;5071978;28;20489;-73
2021/07/21 09:44:37;;;;;;;59.27;3.47;;;24.20;1.00;;;;;;5072037;28;20467;-70
2021/07/21 09:47:15;;;;;;;59.23;3.00;;;24.40;1.00;;;;;;5072078;28;20482;-73
2021/07/21 09:49:43;;;;;;;59.90;4.70;;;24.60;1.00;;;;;;5072257;28;20818;-70
2021/07/21 09:52:20;;;;;;;59.33;3.80;;;24.70;1.00;;;;;;5071998;28;20439;-70
2021/07/21 09:55:07;;;;;;;58.57;2.77;;;24.80;1.00;;;;;;5072071;28;20481;-70
2021/07/21 09:57:35;;;;;;;59.30;3.57;;;25.00;1.00;;;;;;5071946;28;20538;-70
2021/07/21 10:00:18;;;;;;;58.57;2.70;;;25.20;1.00;;;;;;5072141;28;20546;-72
2021/07/21 10:02:45;;;;;;;59.17;3.37;;;25.40;1.00;;;;;;5071694;28;20909;-71
2021/07/21 10:05:12;;;;;;;59.60;3.27;;;25.50;1.00;;;;;;5071835;28;21011;-73
2021/07/21 10:10:23;;;;;;;58.90;3.13;;;25.70;1.00;;;;;;5067929;28;20545;-71
2021/07/21 10:13:02;;;;;;;59.17;3.47;;;25.90;1.00;;;;;;5070238;28;20525;-71
2021/07/21 10:15:29;;;;;;;58.87;3.23;;;26.10;1.00;;;;;;5071230;28;20501;-71
2021/07/21 10:18:11;;;;;;;58.10;2.67;;;26.40;1.00;;;;;;5072010;28;20881;-71
2021/07/21 10:20:38;;;;;;;57.97;2.70;;;26.60;1.00;;;;;;5071823;28;20440;-71
2021/07/21 10:23:05;;;;;;;58.40;2.50;;;26.80;1.00;;;;;;5071444;28;20486;-71
2021/07/21 10:25:34;;;;;;;62.00;2.80;;;27.20;1.00;;;;;;5071639;28;20817;-70
2021/07/21 10:28:01;;;;;;;59.00;3.93;;;28.30;1.00;;;;;;5071717;28;20495;-71
2021/07/21 10:30:30;;;;;;;58.30;2.77;;;29.60;1.00;;;;;;5071600;28;20539;-71
2021/07/21 10:32:58;;;;;;;59.17;3.57;;;30.90;1.00;;;;;;5071158;28;20456;-71
2021/07/21 10:35:28;;;;;;;58.80;4.03;;;32.00;1.00;;;;;;5071748;28;20459;-71
2021/07/21 10:37:55;;;;;;;58.43;3.37;;;33.00;1.00;;;;;;5071884;28;20539;-71
2021/07/21 10:40:24;;;;;;;57.90;2.90;;;33.60;1.00;;;;;;5071549;28;20820;-71
2021/07/21 10:42:54;;;;;;;57.80;2.57;;;34.20;1.00;;;;;;5071016;28;20566;-71
2021/07/21 10:45:23;;;;;;;60.60;2.77;;;34.80;1.00;;;;;;5070278;28;20916;-71
2021/07/21 10:47:52;;;;;;;57.23;2.47;;;35.40;1.00;;;;;;5071610;28;20458;-70
2021/07/21 10:50:32;;;;;;;58.57;2.83;;;35.90;1.00;;;;;;5071581;28;20469;-71
2021/07/21 10:53:33;;;;;;;58.27;2.83;;;36.30;1.00;;;;;;5071176;28;20439;-71
2021/07/21 10:59:14;;;;;;;58.20;2.40;;;36.60;1.00;;;;;;5071404;28;20530;-71
2021/07/21 11:01:42;;;;;;;59.30;3.50;;;36.70;1.00;;;;;;5071106;28;20502;-71
2021/07/21 11:04:10;;;;;;;57.57;2.53;;;37.00;1.00;;;;;;5071183;28;20546;-71
2021/07/21 11:06:38;;;;;;;57.30;2.20;;;37.30;1.00;;;;;;5071434;28;20483;-71
2021/07/21 11:09:15;;;;;;;57.60;2.90;;;37.70;1.00;;;;;;5071387;28;20539;-71
2021/07/21 11:11:43;;;;;;;57.60;2.90;;;37.80;1.00;;;;;;5071012;28;20490;-71
2021/07/21 11:14:15;;;;;;;58.80;2.67;;;37.80;1.00;;;;;;5069388;28;20547;-72
2021/07/21 11:16:46;;;;;;;57.47;2.70;;;38.00;1.00;;;;;;5064832;28;20547;-71
2021/07/21 11:19:30;;;;;;;58.30;3.00;;;38.30;1.00;;;;;;5051191;28;20459;-72
2021/07/21 11:21:58;;;;;;;58.20;3.20;;;38.40;1.00;;;;;;5050887;28;20519;-71
2021/07/21 11:24:28;;;;;;;57.67;2.97;;;38.50;1.00;;;;;;5051345;28;20972;-72
2021/07/21 11:26:55;;;;;;;58.13;3.30;;;38.70;1.00;;;;;;5052252;28;20452;-71
2021/07/21 11:29:43;;;;;;;57.40;2.10;;;39.00;1.00;;;;;;5054842;28;20491;-71
2021/07/21 11:32:29;;;;;;;57.77;2.90;;;39.30;1.00;;;;;;5054416;28;20479;-72
2021/07/21 11:34:57;;;;;;;57.30;2.30;;;39.60;1.00;;;;;;5052421;28;20491;-72
2021/07/21 11:37:35;;;;;;;57.60;2.77;;;39.60;1.00;;;;;;5054855;28;20479;-72
2021/07/21 11:40:18;;;;;;;57.30;2.80;;;39.80;1.00;;;;;;5054467;28;20455;-72
2021/07/21 11:42:45;;;;;;;57.30;2.50;;;40.00;1.00;;;;;;5054126;28;20529;-72
2021/07/21 11:45:21;;;;;;;57.30;2.80;;;39.80;1.00;;;;;;5054177;28;20555;-72
2021/07/21 11:48:01;;;;;;;57.43;2.47;;;39.90;1.00;;;;;;5054085;28;20474;-72
2021/07/21 11:50:31;;;;;;;57.87;3.40;;;40.00;1.00;;;;;;5053572;28;20970;-72
2021/07/21 11:52:59;;;;;;;57.37;2.87;;;40.20;1.00;;;;;;5059118;28;20469;-72
2021/07/21 11:55:27;;;;;;;57.67;3.20;;;40.50;1.00;;;;;;5074203;28;20468;-72
2021/07/21 11:57:54;;;;;;;57.60;2.83;;;40.60;1.00;;;;;;5074224;28;20443;-71
2021/07/21 12:00:23;;;;;;;58.60;3.07;;;40.80;1.00;;;;;;5074283;28;20450;-71
2021/07/21 12:03:00;;;;;;;58.30;3.20;;;41.00;1.00;;;;;;5073923;28;20482;-72
2021/07/21 12:05:28;;;;;;;58.10;2.77;;;41.20;1.00;;;;;;5074027;28;20469;-72
2021/07/21 12:08:00;;;;;;;57.10;2.60;;;41.20;1.00;;;;;;5073707;28;20454;-72
2021/07/21 12:10:27;;;;;;;57.50;2.60;;;41.10;1.00;;;;;;5074138;28;20447;-71
2021/07/21 12:12:54;;;;;;;58.50;3.17;;;41.10;1.00;;;;;;5073401;28;20874;-72
2021/07/21 12:15:21;;;;;;;57.70;2.90;;;41.40;1.00;;;;;;5073907;28;20493;-71
2021/07/21 12:17:49;;;;;;;57.67;2.57;;;41.50;1.00;;;;;;5074068;28;20539;-71
2021/07/21 12:20:18;;;;;;;57.50;2.83;;;41.50;1.00;;;;;;5073790;28;20534;-72
2021/07/21 12:22:46;;;;;;;56.97;2.20;;;41.80;1.00;;;;;;5071675;28;20490;-72
2021/07/21 12:25:16;;;;;;;57.87;2.77;;;42.00;1.00;;;;;;5073301;28;20880;-72
2021/07/21 12:27:44;;;;;;;56.90;2.37;;;41.90;1.00;;;;;;5073365;28;20447;-72
2021/07/21 12:30:13;;;;;;;57.90;2.80;;;42.10;1.00;;;;;;5073685;28;20538;-71
2021/07/21 12:32:40;;;;;;;57.13;2.80;;;42.20;1.00;;;;;;5073077;28;20443;-72
2021/07/21 12:35:10;;;;;;;57.07;2.40;;;42.20;1.00;;;;;;5073422;28;20824;-71
2021/07/21 12:37:43;;;;;;;58.30;3.53;;;42.20;1.00;;;;;;5072965;28;21031;-71
2021/07/21 12:40:12;;;;;;;57.20;3.30;;;42.20;1.00;;;;;;5073153;28;20442;-72
2021/07/21 12:42:40;;;;;;;56.97;2.70;;;42.10;1.00;;;;;;5073008;28;20856;-71
2021/07/21 12:45:09;;;;;;;57.97;2.47;;;42.20;1.00;;;;;;5073062;28;21055;-72
2021/07/21 12:47:38;;;;;;;57.00;2.40;;;42.10;1.00;;;;;;5073199;28;20450;-71
2021/07/21 12:50:08;;;;;;;57.40;2.87;;;41.60;1.00;;;;;;5073632;28;20458;-71
2021/07/21 12:52:41;;;;;;;56.70;2.30;;;41.00;1.00;;;;;;5072662;28;20446;-71
2021/07/21 12:55:10;;;;;;;58.07;3.63;;;41.00;1.00;;;;;;5072291;28;20467;-71
2021/07/21 12:57:39;;;;;;;57.33;3.03;;;41.10;1.00;;;;;;5072988;28;20443;-71
2021/07/21 13:00:11;;;;;;;56.60;2.23;;;41.30;1.00;;;;;;5072807;28;20454;-71
2021/07/21 13:02:38;;;;;;;56.77;2.40;;;41.60;1.00;;;;;;5072574;28;20598;-71
2021/07/21 13:05:34;;;;;;;57.17;2.73;;;41.40;1.00;;;;;;5072479;28;20464;-71
2021/07/21 13:08:04;;;;;;;57.40;2.80;;;41.20;1.00;;;;;;5072628;28;20445;-71
2021/07/21 13:10:32;;;;;;;57.73;2.70;;;39.90;1.00;;;;;;5072652;28;20454;-71